Time;durP1;ratioP1;P1;durP2;ratioP2;P2;SDS_P1;SDS_P2;PMS_P1;PMS_P2;Temp;Humidity;BMP_temperature;BMP_pressure;BME280_temperature;BME280_humidity;BME280_pressure;Samples;Min_cycle;Max_cycle;Signal;HPM_P1;HPM_P2
2021/09/06 00:00:10;;;;;;;9.88;5.47;;;;;;;;;;5033656;28;20104;-60
2021/09/06 00:02:36;;;;;;;7.00;4.95;;;;;;;;;;5034240;28;20447;-59
2021/09/06 00:05:05;;;;;;;9.63;5.63;;;;;;;;;;5033605;28;20029;-59
2021/09/06 00:07:31;;;;;;;5.82;5.15;;;;;;;;;;5033633;28;20376;-59
2021/09/06 00:10:00;;;;;;;5.65;4.90;;;;;;;;;;5033494;28;20018;-59
2021/09/06 00:12:28;;;;;;;7.30;5.97;;;;;;;;;;5016201;28;20080;-59
2021/09/06 00:14:54;;;;;;;7.28;5.68;;;;;;;;;;5016452;28;20036;-59
2021/09/06 00:17:21;;;;;;;7.75;5.40;;;;;;;;;;5033243;28;20026;-59
2021/09/06 00:19:46;;;;;;;7.78;5.57;;;;;;;;;;5015816;28;20021;-59
2021/09/06 00:22:12;;;;;;;7.03;5.43;;;;;;;;;;5034838;28;20018;-59
2021/09/06 00:24:39;;;;;;;7.07;5.60;;;;;;;;;;5037617;28;20095;-59
2021/09/06 00:27:05;;;;;;;5.68;5.03;;;;;;;;;;5020037;28;20036;-59
2021/09/06 00:29:31;;;;;;;7.40;6.05;;;;;;;;;;5019718;28;20026;-59
2021/09/06 00:31:57;;;;;;;6.65;5.38;;;;;;;;;;5038219;28;20108;-59
2021/09/06 00:34:23;;;;;;;8.23;6.50;;;;;;;;;;5037589;28;20057;-59
2021/09/06 00:36:49;;;;;;;7.07;5.32;;;;;;;;;;5020166;28;20065;-59
2021/09/06 00:39:15;;;;;;;8.57;5.43;;;;;;;;;;5037287;28;20056;-59
2021/09/06 00:41:43;;;;;;;8.45;6.20;;;;;;;;;;5037870;28;20026;-59
2021/09/06 00:44:09;;;;;;;5.70;5.10;;;;;;;;;;5037205;28;20029;-59
2021/09/06 00:46:35;;;;;;;8.13;5.88;;;;;;;;;;5037214;28;20109;-59
2021/09/06 00:49:01;;;;;;;6.43;4.78;;;;;;;;;;5037109;28;20045;-59
2021/09/06 00:51:27;;;;;;;6.35;5.68;;;;;;;;;;5019589;28;20029;-59
2021/09/06 00:53:53;;;;;;;11.57;5.70;;;;;;;;;;5037828;28;20028;-59
2021/09/06 00:56:19;;;;;;;11.95;5.85;;;;;;;;;;5019110;28;20052;-59
2021/09/06 00:58:45;;;;;;;7.70;5.82;;;;;;;;;;5036866;28;20030;-59
2021/09/06 01:01:12;;;;;;;6.90;5.60;;;;;;;;;;5037356;28;20021;-59
2021/09/06 01:03:38;;;;;;;6.85;5.60;;;;;;;;;;5019699;28;20013;-59
2021/09/06 01:06:04;;;;;;;6.07;5.30;;;;;;;;;;5019072;28;20041;-59
2021/09/06 01:08:30;;;;;;;7.10;5.57;;;;;;;;;;5036749;28;20026;-59
2021/09/06 01:10:57;;;;;;;8.10;6.20;;;;;;;;;;5036666;28;20020;-59
2021/09/06 01:13:23;;;;;;;7.40;5.90;;;;;;;;;;5036145;28;20132;-59
2021/09/06 01:15:49;;;;;;;10.40;5.97;;;;;;;;;;5037026;28;20029;-59
2021/09/06 01:18:14;;;;;;;6.65;5.95;;;;;;;;;;5018799;28;20029;-59
2021/09/06 01:20:40;;;;;;;9.25;6.40;;;;;;;;;;5036522;28;20113;-59
2021/09/06 01:23:09;;;;;;;6.68;5.95;;;;;;;;;;5036801;28;20029;-60
2021/09/06 01:25:35;;;;;;;7.43;6.38;;;;;;;;;;5036386;28;20039;-59
2021/09/06 01:28:01;;;;;;;7.18;5.95;;;;;;;;;;5036673;28;20053;-59
2021/09/06 01:30:27;;;;;;;6.90;5.55;;;;;;;;;;5036005;28;20442;-59
2021/09/06 01:32:54;;;;;;;7.55;5.95;;;;;;;;;;5036347;28;20076;-59
2021/09/06 01:35:20;;;;;;;8.60;6.18;;;;;;;;;;5018390;28;20025;-59
2021/09/06 01:37:46;;;;;;;6.60;5.80;;;;;;;;;;5036209;28;20037;-60
2021/09/06 01:40:12;;;;;;;8.32;6.53;;;;;;;;;;5036172;28;20029;-59
2021/09/06 01:42:38;;;;;;;7.47;5.70;;;;;;;;;;5036459;28;20022;-60
2021/09/06 01:45:10;;;;;;;7.20;5.88;;;;;;;;;;5018580;28;20123;-59
2021/09/06 01:47:36;;;;;;;7.30;6.18;;;;;;;;;;5036072;28;20034;-59
2021/09/06 01:50:05;;;;;;;9.13;7.43;;;;;;;;;;5036262;28;20104;-59
2021/09/06 01:52:31;;;;;;;7.88;6.38;;;;;;;;;;5018431;28;20057;-59
2021/09/06 01:54:57;;;;;;;6.10;5.55;;;;;;;;;;5035821;28;20036;-59
2021/09/06 01:57:23;;;;;;;9.13;6.05;;;;;;;;;;5035883;28;20038;-59
2021/09/06 01:59:49;;;;;;;8.43;6.32;;;;;;;;;;5035752;28;20057;-59
2021/09/06 02:02:18;;;;;;;11.27;6.22;;;;;;;;;;5036107;28;20368;-59
2021/09/06 02:04:50;;;;;;;9.68;6.25;;;;;;;;;;5035616;28;20109;-59
2021/09/06 02:07:16;;;;;;;7.57;5.72;;;;;;;;;;5036137;28;20030;-59
2021/09/06 02:09:42;;;;;;;8.23;5.63;;;;;;;;;;5035568;28;20026;-59
2021/09/06 02:12:08;;;;;;;8.05;6.50;;;;;;;;;;5018069;28;20504;-59
2021/09/06 02:14:34;;;;;;;8.40;6.80;;;;;;;;;;5018252;28;20463;-59
2021/09/06 02:17:01;;;;;;;8.82;6.38;;;;;;;;;;5035449;28;20033;-59
2021/09/06 02:19:27;;;;;;;8.23;6.63;;;;;;;;;;5017674;28;20037;-59
2021/09/06 02:21:53;;;;;;;8.85;6.45;;;;;;;;;;5017899;28;20045;-59
2021/09/06 02:24:19;;;;;;;12.73;6.88;;;;;;;;;;5035592;28;20052;-59
2021/09/06 02:26:45;;;;;;;9.23;7.38;;;;;;;;;;5035343;28;20068;-59
2021/09/06 02:29:11;;;;;;;12.18;7.85;;;;;;;;;;5035142;28;20464;-59
2021/09/06 02:31:37;;;;;;;8.43;7.38;;;;;;;;;;5017416;28;20482;-59
2021/09/06 02:34:03;;;;;;;9.43;6.95;;;;;;;;;;5035093;28;20026;-59
2021/09/06 02:36:29;;;;;;;8.00;6.55;;;;;;;;;;5035456;28;20464;-59
2021/09/06 02:38:56;;;;;;;8.90;7.18;;;;;;;;;;5035594;28;20025;-59
2021/09/06 02:41:22;;;;;;;12.48;7.38;;;;;;;;;;5035025;28;20120;-59
2021/09/06 02:43:48;;;;;;;11.05;7.75;;;;;;;;;;5034724;28;20502;-59
2021/09/06 02:46:14;;;;;;;7.90;7.00;;;;;;;;;;5033634;28;20484;-59
2021/09/06 02:48:40;;;;;;;11.55;8.02;;;;;;;;;;5034715;28;20026;-59
2021/09/06 02:51:06;;;;;;;6.53;5.57;;;;;;;;;;5033797;28;20395;-59
2021/09/06 02:53:32;;;;;;;8.25;7.03;;;;;;;;;;5035354;28;20029;-59
2021/09/06 02:55:58;;;;;;;8.18;7.30;;;;;;;;;;5016521;28;20493;-59
2021/09/06 02:58:24;;;;;;;7.15;6.22;;;;;;;;;;5016826;28;20044;-59
2021/09/06 03:00:50;;;;;;;7.45;5.90;;;;;;;;;;5035139;28;20076;-59
2021/09/06 03:03:16;;;;;;;8.07;6.82;;;;;;;;;;5035445;28;20026;-59
2021/09/06 03:05:42;;;;;;;7.50;6.43;;;;;;;;;;5034545;28;20033;-59
2021/09/06 03:08:08;;;;;;;6.43;5.80;;;;;;;;;;5034118;28;20522;-59
2021/09/06 03:10:34;;;;;;;9.07;7.10;;;;;;;;;;5017226;28;20033;-59
2021/09/06 03:13:00;;;;;;;7.50;5.93;;;;;;;;;;5034466;28;20140;-59
2021/09/06 03:15:26;;;;;;;8.35;6.95;;;;;;;;;;5034273;28;20120;-59
2021/09/06 03:17:52;;;;;;;7.13;5.63;;;;;;;;;;5034898;28;20064;-59
2021/09/06 03:20:18;;;;;;;7.15;5.82;;;;;;;;;;5000574;28;20029;-59
2021/09/06 03:22:44;;;;;;;8.40;6.95;;;;;;;;;;5017147;28;20037;-59
2021/09/06 03:25:13;;;;;;;8.73;7.13;;;;;;;;;;5034244;28;20391;-59
2021/09/06 03:27:39;;;;;;;7.15;6.45;;;;;;;;;;5034104;28;20100;-59
2021/09/06 03:30:06;;;;;;;7.30;6.57;;;;;;;;;;5017081;28;20029;-59
2021/09/06 03:32:35;;;;;;;9.93;6.53;;;;;;;;;;5034694;28;20468;-59
2021/09/06 03:35:01;;;;;;;8.85;6.90;;;;;;;;;;5033863;28;20036;-59
2021/09/06 03:37:27;;;;;;;8.77;7.00;;;;;;;;;;5016552;28;20094;-59
2021/09/06 03:39:53;;;;;;;8.57;6.45;;;;;;;;;;5016834;28;20029;-59
2021/09/06 03:42:19;;;;;;;8.90;7.57;;;;;;;;;;5016097;28;20369;-59
2021/09/06 03:44:45;;;;;;;11.60;6.65;;;;;;;;;;5033852;28;20040;-59
2021/09/06 03:47:11;;;;;;;8.07;6.95;;;;;;;;;;5016562;28;20431;-59
2021/09/06 03:49:37;;;;;;;8.27;7.22;;;;;;;;;;5033910;28;20025;-59
2021/09/06 03:52:03;;;;;;;9.30;6.50;;;;;;;;;;5034194;28;20018;-59
2021/09/06 03:54:29;;;;;;;7.05;6.30;;;;;;;;;;5033749;28;20026;-59
2021/09/06 03:56:55;;;;;;;8.60;6.95;;;;;;;;;;5033594;28;20475;-59
2021/09/06 03:59:21;;;;;;;9.20;7.20;;;;;;;;;;5034259;28;20017;-59
2021/09/06 04:01:48;;;;;;;8.75;7.60;;;;;;;;;;5015561;28;20041;-59
2021/09/06 04:04:14;;;;;;;12.57;7.78;;;;;;;;;;5034191;28;20034;-59
2021/09/06 04:06:40;;;;;;;10.90;6.97;;;;;;;;;;5033896;28;20021;-59
2021/09/06 04:09:06;;;;;;;7.90;7.10;;;;;;;;;;5033666;28;20036;-59
2021/09/06 04:11:32;;;;;;;8.13;7.22;;;;;;;;;;5034487;28;20425;-59
2021/09/06 04:13:58;;;;;;;11.52;7.47;;;;;;;;;;5034241;28;20069;-59
2021/09/06 04:16:26;;;;;;;9.60;7.82;;;;;;;;;;4999583;28;20071;-59
2021/09/06 04:18:55;;;;;;;9.20;7.43;;;;;;;;;;5034317;28;20444;-59
2021/09/06 04:21:21;;;;;;;9.35;6.70;;;;;;;;;;5033622;28;20467;-59
2021/09/06 04:23:47;;;;;;;9.25;8.25;;;;;;;;;;5034134;28;20033;-59
2021/09/06 04:26:19;;;;;;;10.60;8.35;;;;;;;;;;5033562;28;20452;-59
2021/09/06 04:28:45;;;;;;;8.55;7.60;;;;;;;;;;5033711;28;20029;-59
2021/09/06 04:31:11;;;;;;;8.93;7.72;;;;;;;;;;5015564;28;20017;-59
2021/09/06 04:33:37;;;;;;;11.82;8.60;;;;;;;;;;5033529;28;20032;-59
2021/09/06 04:36:03;;;;;;;9.38;7.38;;;;;;;;;;5033476;28;20053;-59
2021/09/06 04:38:30;;;;;;;12.55;7.60;;;;;;;;;;5033084;28;20034;-59
2021/09/06 04:40:56;;;;;;;9.05;8.15;;;;;;;;;;5033559;28;20360;-59
2021/09/06 04:43:22;;;;;;;8.18;7.35;;;;;;;;;;5033699;28;20026;-59
2021/09/06 04:45:48;;;;;;;8.10;7.25;;;;;;;;;;5033376;28;20080;-59
2021/09/06 04:48:13;;;;;;;8.55;7.63;;;;;;;;;;5033791;28;20104;-59
2021/09/06 04:50:39;;;;;;;8.82;7.57;;;;;;;;;;5015520;28;20109;-59
2021/09/06 04:53:05;;;;;;;7.90;6.75;;;;;;;;;;5033856;28;20415;-59
2021/09/06 04:55:34;;;;;;;10.15;8.00;;;;;;;;;;5033213;28;20113;-59
2021/09/06 04:58:03;;;;;;;10.18;7.60;;;;;;;;;;5015382;28;20030;-59
2021/09/06 05:00:32;;;;;;;11.55;8.50;;;;;;;;;;5033211;28;20026;-59
2021/09/06 05:02:58;;;;;;;10.68;8.73;;;;;;;;;;5016283;28;20434;-59
2021/09/06 05:05:24;;;;;;;9.52;8.45;;;;;;;;;;5033158;28;20071;-59
2021/09/06 05:07:50;;;;;;;10.07;7.85;;;;;;;;;;5033766;28;20060;-59
2021/09/06 05:10:16;;;;;;;10.32;9.05;;;;;;;;;;5037047;28;20076;-59
2021/09/06 05:12:42;;;;;;;9.50;8.48;;;;;;;;;;5037034;28;20056;-59
2021/09/06 05:15:08;;;;;;;12.27;9.18;;;;;;;;;;5036705;28;20108;-59
2021/09/06 05:17:34;;;;;;;11.52;8.45;;;;;;;;;;5019432;28;20033;-59
2021/09/06 05:20:00;;;;;;;11.52;8.80;;;;;;;;;;5018931;28;20037;-59
2021/09/06 05:22:26;;;;;;;8.35;7.10;;;;;;;;;;5036837;28;20527;-59
2021/09/06 05:24:55;;;;;;;12.75;9.13;;;;;;;;;;5037095;28;20472;-59
2021/09/06 05:27:22;;;;;;;11.00;9.13;;;;;;;;;;5036630;28;20025;-59
2021/09/06 05:29:48;;;;;;;9.85;8.60;;;;;;;;;;5036837;28;20049;-59
2021/09/06 05:32:14;;;;;;;12.55;10.05;;;;;;;;;;5036704;28;20450;-59
2021/09/06 05:34:40;;;;;;;11.25;8.55;;;;;;;;;;5036178;28;20534;-59
2021/09/06 05:37:06;;;;;;;9.45;8.02;;;;;;;;;;5036809;28;20093;-59
2021/09/06 05:39:32;;;;;;;13.77;8.13;;;;;;;;;;5002378;28;20033;-59
2021/09/06 05:41:58;;;;;;;10.10;7.97;;;;;;;;;;5036431;28;20036;-59
2021/09/06 05:44:24;;;;;;;8.98;7.80;;;;;;;;;;5036261;28;20534;-59
2021/09/06 05:46:50;;;;;;;9.30;8.30;;;;;;;;;;5018645;28;20049;-59
2021/09/06 05:49:16;;;;;;;11.48;8.90;;;;;;;;;;5036513;28;20029;-59
2021/09/06 05:51:42;;;;;;;10.23;8.48;;;;;;;;;;5036052;28;20026;-59
2021/09/06 05:54:08;;;;;;;11.50;7.75;;;;;;;;;;5035680;28;20084;-59
2021/09/06 05:56:34;;;;;;;8.60;7.80;;;;;;;;;;5036586;28;20041;-59
2021/09/06 05:59:00;;;;;;;9.73;6.97;;;;;;;;;;5018169;28;20061;-59
2021/09/06 06:01:26;;;;;;;10.18;9.15;;;;;;;;;;5035927;28;20065;-59
2021/09/06 06:03:52;;;;;;;8.98;8.15;;;;;;;;;;5036633;28;20044;-59
2021/09/06 06:06:18;;;;;;;9.48;8.48;;;;;;;;;;5035777;28;20383;-59
2021/09/06 06:08:44;;;;;;;12.73;8.77;;;;;;;;;;5036358;28;20394;-59
2021/09/06 06:11:11;;;;;;;12.57;8.93;;;;;;;;;;5035885;28;20030;-59
2021/09/06 06:13:37;;;;;;;10.80;9.27;;;;;;;;;;5035591;28;20049;-59
2021/09/06 06:16:03;;;;;;;10.20;8.80;;;;;;;;;;5035585;28;20037;-59
2021/09/06 06:18:29;;;;;;;11.93;9.07;;;;;;;;;;5035430;28;20490;-59
2021/09/06 06:20:55;;;;;;;10.68;7.95;;;;;;;;;;5035745;28;20022;-59
2021/09/06 06:23:21;;;;;;;8.85;7.43;;;;;;;;;;5035250;28;20080;-59
2021/09/06 06:25:47;;;;;;;13.43;9.10;;;;;;;;;;5036157;28;20040;-59
2021/09/06 06:28:13;;;;;;;15.95;9.77;;;;;;;;;;5036033;28;20382;-59
2021/09/06 06:30:39;;;;;;;16.92;8.70;;;;;;;;;;5017461;28;20108;-59
2021/09/06 06:33:05;;;;;;;8.77;7.75;;;;;;;;;;5035491;28;20064;-59
2021/09/06 06:35:31;;;;;;;8.77;7.40;;;;;;;;;;5017850;28;20029;-59
2021/09/06 06:37:57;;;;;;;10.23;8.05;;;;;;;;;;5034961;28;20029;-59
2021/09/06 06:40:23;;;;;;;8.27;7.35;;;;;;;;;;5035077;28;20100;-59
2021/09/06 06:42:49;;;;;;;8.43;7.57;;;;;;;;;;5017325;28;20029;-59
2021/09/06 06:45:15;;;;;;;8.30;7.20;;;;;;;;;;5035364;28;20069;-59
2021/09/06 06:47:41;;;;;;;7.80;7.00;;;;;;;;;;5035717;28;20044;-59
2021/09/06 06:50:08;;;;;;;9.82;8.00;;;;;;;;;;5035474;28;20099;-59
2021/09/06 06:52:35;;;;;;;7.75;6.80;;;;;;;;;;5017745;28;20037;-59
2021/09/06 06:55:04;;;;;;;7.88;6.40;;;;;;;;;;5035080;28;20033;-59
2021/09/06 06:57:30;;;;;;;9.13;6.90;;;;;;;;;;5001050;28;20391;-59
2021/09/06 06:59:57;;;;;;;12.65;8.07;;;;;;;;;;5034541;28;20375;-59
2021/09/06 07:02:23;;;;;;;9.00;7.30;;;;;;;;;;5016847;28;20033;-59
2021/09/06 07:04:49;;;;;;;8.23;7.38;;;;;;;;;;5034428;28;20025;-59
2021/09/06 07:07:15;;;;;;;8.23;6.70;;;;;;;;;;5017385;28;20021;-59
2021/09/06 07:09:41;;;;;;;8.48;7.53;;;;;;;;;;5000355;28;20043;-59
2021/09/06 07:12:07;;;;;;;9.27;8.25;;;;;;;;;;5016882;28;20502;-59
2021/09/06 07:14:33;;;;;;;8.75;6.18;;;;;;;;;;5035261;28;20032;-59
2021/09/06 07:17:00;;;;;;;7.55;6.38;;;;;;;;;;5017342;28;20436;-59
2021/09/06 07:19:26;;;;;;;9.45;6.95;;;;;;;;;;5034306;28;20022;-59
2021/09/06 07:21:52;;;;;;;8.95;6.45;;;;;;;;;;5034725;28;20033;-59
2021/09/06 07:24:18;;;;;;;7.90;6.75;;;;;;;;;;5016855;28;20029;-59
2021/09/06 07:26:45;;;;;;;8.43;5.85;;;;;;;;;;5034017;28;20545;-59
2021/09/06 07:29:13;;;;;;;8.30;6.47;;;;;;;;;;5034450;28;20045;-59
2021/09/06 07:31:39;;;;;;;7.35;6.30;;;;;;;;;;5016752;28;20519;-59
2021/09/06 07:34:05;;;;;;;9.05;6.82;;;;;;;;;;5034603;28;20022;-59
2021/09/06 07:36:32;;;;;;;8.32;6.78;;;;;;;;;;5016891;28;20103;-59
2021/09/06 07:39:01;;;;;;;7.35;6.43;;;;;;;;;;5034034;28;20029;-59
2021/09/06 07:41:27;;;;;;;13.07;6.53;;;;;;;;;;5016315;28;20028;-59
2021/09/06 07:43:53;;;;;;;7.55;5.57;;;;;;;;;;5033693;28;20025;-59
2021/09/06 07:46:19;;;;;;;8.88;6.13;;;;;;;;;;5016332;28;20443;-59
2021/09/06 07:48:45;;;;;;;7.85;6.70;;;;;;;;;;5033656;28;20041;-59
2021/09/06 07:51:11;;;;;;;8.57;5.75;;;;;;;;;;5033628;28;20406;-59
2021/09/06 07:53:40;;;;;;;8.93;5.22;;;;;;;;;;5034749;28;20022;-59
2021/09/06 07:56:06;;;;;;;6.95;6.22;;;;;;;;;;5016525;28;20114;-59
2021/09/06 07:58:32;;;;;;;11.10;6.63;;;;;;;;;;5016091;28;20153;-59
2021/09/06 08:00:58;;;;;;;6.28;5.25;;;;;;;;;;5034288;28;20460;-59
2021/09/06 08:03:24;;;;;;;6.97;5.35;;;;;;;;;;5034246;28;20090;-60
2021/09/06 08:05:50;;;;;;;5.63;5.03;;;;;;;;;;5033968;28;20033;-60
2021/09/06 08:08:17;;;;;;;7.53;5.60;;;;;;;;;;5015798;28;20022;-59
2021/09/06 08:10:44;;;;;;;9.10;5.65;;;;;;;;;;5016295;28;20076;-60
2021/09/06 08:13:10;;;;;;;5.93;5.30;;;;;;;;;;5033973;28;20489;-59
2021/09/06 08:15:37;;;;;;;6.25;5.05;;;;;;;;;;5033413;28;20060;-59
2021/09/06 08:18:04;;;;;;;5.93;5.30;;;;;;;;;;5033772;28;20487;-59
2021/09/06 08:20:30;;;;;;;6.90;4.72;;;;;;;;;;5033503;28;20029;-59
2021/09/06 08:22:56;;;;;;;8.10;5.15;;;;;;;;;;5034134;28;20467;-59
2021/09/06 08:25:22;;;;;;;11.65;5.22;;;;;;;;;;5033523;28;20034;-59
2021/09/06 08:27:48;;;;;;;5.75;4.78;;;;;;;;;;5016554;28;20045;-59
2021/09/06 08:30:14;;;;;;;6.18;5.57;;;;;;;;;;5033359;28;20064;-59
2021/09/06 08:32:43;;;;;;;6.28;5.65;;;;;;;;;;5015834;28;20375;-59
2021/09/06 08:35:09;;;;;;;7.35;5.55;;;;;;;;;;5033321;28;20074;-59
2021/09/06 08:37:35;;;;;;;7.45;5.70;;;;;;;;;;5033880;28;20029;-59
2021/09/06 08:40:02;;;;;;;7.45;5.28;;;;;;;;;;5033061;28;20486;-57
2021/09/06 08:42:28;;;;;;;8.35;5.75;;;;;;;;;;5033396;28;20092;-57
2021/09/06 08:44:54;;;;;;;5.72;4.93;;;;;;;;;;5036775;28;20084;-57
2021/09/06 08:47:20;;;;;;;8.50;4.95;;;;;;;;;;5037400;28;20440;-57
2021/09/06 08:49:49;;;;;;;5.53;4.95;;;;;;;;;;5037223;28;20017;-57
2021/09/06 08:52:15;;;;;;;6.40;5.25;;;;;;;;;;5019765;28;20049;-57
2021/09/06 08:54:41;;;;;;;8.05;5.85;;;;;;;;;;5036891;28;20029;-60
2021/09/06 08:57:08;;;;;;;6.28;5.55;;;;;;;;;;5037574;28;20403;-60
2021/09/06 08:59:34;;;;;;;7.88;5.28;;;;;;;;;;5037227;28;20546;-59
2021/09/06 09:02:00;;;;;;;6.97;6.28;;;;;;;;;;5037580;28;20025;-57
2021/09/06 09:04:27;;;;;;;7.97;6.57;;;;;;;;;;5037416;28;20017;-57
2021/09/06 09:06:54;;;;;;;7.80;5.30;;;;;;;;;;5019862;28;20056;-57
2021/09/06 09:09:28;;;;;;;7.28;6.30;;;;;;;;;;5036860;28;20030;-60
2021/09/06 09:12:04;;;;;;;6.97;4.97;;;;;;;;;;5036840;28;20021;-62
2021/09/06 09:14:31;;;;;;;7.10;5.38;;;;;;;;;;5019550;28;20017;-58
2021/09/06 09:16:58;;;;;;;6.32;4.40;;;;;;;;;;5036386;28;20037;-58
2021/09/06 09:19:24;;;;;;;7.35;5.18;;;;;;;;;;5036302;28;20029;-58
2021/09/06 09:21:57;;;;;;;6.85;4.82;;;;;;;;;;5036935;28;20030;-58
2021/09/06 09:24:23;;;;;;;6.50;5.03;;;;;;;;;;5019122;28;20500;-58
2021/09/06 09:26:56;;;;;;;5.75;4.93;;;;;;;;;;5036838;28;20031;-58
2021/09/06 09:29:22;;;;;;;5.25;4.22;;;;;;;;;;5036267;28;20522;-58
2021/09/06 09:31:49;;;;;;;5.82;4.53;;;;;;;;;;5019523;28;20025;-58
2021/09/06 09:34:15;;;;;;;8.30;4.50;;;;;;;;;;5036136;28;20108;-58
2021/09/06 09:36:41;;;;;;;5.90;4.65;;;;;;;;;;5019237;28;20345;-58
2021/09/06 09:39:09;;;;;;;5.78;4.72;;;;;;;;;;5036306;28;20077;-58
2021/09/06 09:41:35;;;;;;;5.88;4.43;;;;;;;;;;5036701;28;20026;-58
2021/09/06 09:44:10;;;;;;;10.43;4.70;;;;;;;;;;5036320;28;20121;-58
2021/09/06 09:46:36;;;;;;;7.47;4.90;;;;;;;;;;5018715;28;20032;-58
2021/09/06 09:49:12;;;;;;;6.13;4.68;;;;;;;;;;5036091;28;20403;-58
2021/09/06 09:51:38;;;;;;;7.50;4.88;;;;;;;;;;5036315;28;20096;-58
2021/09/06 09:54:05;;;;;;;7.47;4.88;;;;;;;;;;5035665;28;20116;-59
2021/09/06 09:56:32;;;;;;;7.13;5.18;;;;;;;;;;5019019;28;20029;-59
2021/09/06 09:59:00;;;;;;;8.30;5.55;;;;;;;;;;5035656;28;20021;-58
2021/09/06 10:01:28;;;;;;;5.78;5.18;;;;;;;;;;5035863;28;20029;-58
2021/09/06 10:03:55;;;;;;;6.55;4.68;;;;;;;;;;5035884;28;20052;-58
2021/09/06 10:06:21;;;;;;;5.95;4.78;;;;;;;;;;5035504;28;20040;-58
2021/09/06 10:08:47;;;;;;;8.13;4.95;;;;;;;;;;5018827;28;20059;-58
2021/09/06 10:11:14;;;;;;;5.32;4.57;;;;;;;;;;5035379;28;20025;-58
2021/09/06 10:13:41;;;;;;;5.88;4.75;;;;;;;;;;5035980;28;20041;-59
2021/09/06 10:16:07;;;;;;;6.20;4.07;;;;;;;;;;5035982;28;20022;-59
2021/09/06 10:18:37;;;;;;;6.45;4.90;;;;;;;;;;5035865;28;20033;-59
2021/09/06 10:21:11;;;;;;;5.13;4.60;;;;;;;;;;5035449;28;20025;-59
2021/09/06 10:23:47;;;;;;;10.85;4.88;;;;;;;;;;5035503;28;20035;-59
2021/09/06 10:26:13;;;;;;;10.68;5.30;;;;;;;;;;5035627;28;20040;-59
2021/09/06 10:28:40;;;;;;;6.93;5.20;;;;;;;;;;5036169;28;20028;-60
2021/09/06 10:31:06;;;;;;;5.97;4.35;;;;;;;;;;5035589;28;20104;-60
2021/09/06 10:33:31;;;;;;;6.38;5.20;;;;;;;;;;5018417;28;20026;-60
2021/09/06 10:36:05;;;;;;;5.85;4.93;;;;;;;;;;5018180;28;20530;-60
2021/09/06 10:38:38;;;;;;;6.15;4.93;;;;;;;;;;5017435;28;20526;-57
2021/09/06 10:41:13;;;;;;;6.63;5.03;;;;;;;;;;5035135;28;20057;-57
2021/09/06 10:43:43;;;;;;;7.75;4.97;;;;;;;;;;5035967;28;20488;-57
2021/09/06 10:46:09;;;;;;;8.10;4.50;;;;;;;;;;5035803;28;20029;-57
2021/09/06 10:48:38;;;;;;;7.35;5.05;;;;;;;;;;5034972;28;20032;-58
2021/09/06 10:51:05;;;;;;;5.95;4.88;;;;;;;;;;5017801;28;20056;-58
2021/09/06 10:53:31;;;;;;;6.90;5.28;;;;;;;;;;5035402;28;20452;-57
2021/09/06 10:55:58;;;;;;;6.00;4.97;;;;;;;;;;5035265;28;20049;-57
2021/09/06 10:58:25;;;;;;;9.07;5.65;;;;;;;;;;5035133;28;20030;-58
2021/09/06 11:00:53;;;;;;;6.97;4.97;;;;;;;;;;5034522;28;20025;-57
2021/09/06 11:03:19;;;;;;;8.23;5.78;;;;;;;;;;5035238;28;20021;-57
2021/09/06 11:05:52;;;;;;;5.80;5.20;;;;;;;;;;5033845;28;20026;-57
2021/09/06 11:08:22;;;;;;;5.47;4.97;;;;;;;;;;5035145;28;20035;-57
2021/09/06 11:10:49;;;;;;;6.15;5.40;;;;;;;;;;5035164;28;20032;-57
2021/09/06 11:13:15;;;;;;;6.45;5.50;;;;;;;;;;5034725;28;20049;-57
2021/09/06 11:15:41;;;;;;;5.95;5.25;;;;;;;;;;5034134;28;20380;-58
2021/09/06 11:18:09;;;;;;;5.60;4.85;;;;;;;;;;5034712;28;20030;-57
2021/09/06 11:20:36;;;;;;;5.95;5.25;;;;;;;;;;5034727;28;20072;-57
2021/09/06 11:23:07;;;;;;;6.47;5.05;;;;;;;;;;5034279;28;20031;-58
2021/09/06 11:25:34;;;;;;;5.97;4.75;;;;;;;;;;5034589;28;20060;-57
2021/09/06 11:28:10;;;;;;;6.85;5.13;;;;;;;;;;5034056;28;20464;-57
2021/09/06 11:30:37;;;;;;;6.72;4.95;;;;;;;;;;5034085;28;20021;-57
2021/09/06 11:33:09;;;;;;;7.00;5.50;;;;;;;;;;5034700;28;20359;-57
2021/09/06 11:35:36;;;;;;;6.10;4.57;;;;;;;;;;5034137;28;20489;-57
2021/09/06 11:38:03;;;;;;;6.22;5.25;;;;;;;;;;5034739;28;20040;-57
2021/09/06 11:40:29;;;;;;;6.55;5.45;;;;;;;;;;5034352;28;20107;-57
2021/09/06 11:42:55;;;;;;;8.05;5.72;;;;;;;;;;5017041;28;20022;-57
2021/09/06 11:45:22;;;;;;;5.97;4.88;;;;;;;;;;5033895;28;20029;-57
2021/09/06 11:47:48;;;;;;;6.75;5.03;;;;;;;;;;5034434;28;20036;-57
2021/09/06 11:50:15;;;;;;;8.75;5.18;;;;;;;;;;5016078;28;20478;-57
2021/09/06 11:52:42;;;;;;;7.57;5.15;;;;;;;;;;5033885;28;20022;-57
2021/09/06 11:55:13;;;;;;;5.30;4.80;;;;;;;;;;5033450;28;20472;-57
2021/09/06 11:57:39;;;;;;;6.88;4.60;;;;;;;;;;5033770;28;20033;-57
2021/09/06 12:00:06;;;;;;;6.07;4.68;;;;;;;;;;5033546;28;20503;-57
2021/09/06 12:02:31;;;;;;;5.63;4.55;;;;;;;;;;5016925;28;20021;-57
2021/09/06 12:05:24;;;;;;;6.93;5.45;;;;;;;;;;5033779;28;20048;-57
2021/09/06 12:07:51;;;;;;;6.32;4.95;;;;;;;;;;5029875;28;20495;-57
2021/09/06 12:10:28;;;;;;;4.80;3.95;;;;;;;;;;5033671;28;20357;-57
2021/09/06 12:13:00;;;;;;;7.00;3.97;;;;;;;;;;5033842;28;20391;-57
2021/09/06 12:15:26;;;;;;;5.38;4.60;;;;;;;;;;5033822;28;20029;-57
2021/09/06 12:17:52;;;;;;;6.78;5.07;;;;;;;;;;5037546;28;20029;-57
2021/09/06 12:20:18;;;;;;;6.07;4.85;;;;;;;;;;5040207;28;20505;-57
2021/09/06 12:22:53;;;;;;;6.13;4.75;;;;;;;;;;5039919;28;20487;-57
2021/09/06 12:25:23;;;;;;;7.47;4.05;;;;;;;;;;5040491;28;20455;-57
2021/09/06 12:27:49;;;;;;;5.78;4.03;;;;;;;;;;5022350;28;20091;-57
2021/09/06 12:30:15;;;;;;;7.22;5.68;;;;;;;;;;5040294;28;20029;-57
2021/09/06 12:32:41;;;;;;;7.07;4.55;;;;;;;;;;5039819;28;20464;-58
2021/09/06 12:35:07;;;;;;;5.85;4.18;;;;;;;;;;5040236;28;20075;-59
2021/09/06 12:37:33;;;;;;;5.10;4.00;;;;;;;;;;5040485;28;20041;-59
2021/09/06 12:40:00;;;;;;;8.10;4.50;;;;;;;;;;5040592;28;20100;-59
2021/09/06 12:42:26;;;;;;;5.45;4.10;;;;;;;;;;5040519;28;20461;-59
2021/09/06 12:44:52;;;;;;;6.22;4.50;;;;;;;;;;5040752;28;20096;-59
2021/09/06 12:47:18;;;;;;;7.75;4.82;;;;;;;;;;5022385;28;20049;-59
2021/09/06 12:49:44;;;;;;;5.85;4.75;;;;;;;;;;5040050;28;20067;-59
2021/09/06 12:52:10;;;;;;;5.53;4.32;;;;;;;;;;5040278;28;20535;-59
2021/09/06 12:54:36;;;;;;;4.75;4.07;;;;;;;;;;5040074;28;20052;-59
2021/09/06 12:57:02;;;;;;;5.35;4.65;;;;;;;;;;5040115;28;20047;-58
2021/09/06 12:59:29;;;;;;;4.53;3.50;;;;;;;;;;5039809;28;20412;-59
2021/09/06 13:01:54;;;;;;;5.88;3.90;;;;;;;;;;5040462;28;20034;-59
2021/09/06 13:04:21;;;;;;;6.95;4.70;;;;;;;;;;5040064;28;20087;-59
2021/09/06 13:06:47;;;;;;;10.77;5.10;;;;;;;;;;5039724;28;20035;-59
2021/09/06 13:09:13;;;;;;;6.93;4.35;;;;;;;;;;5040009;28;20033;-59
2021/09/06 13:11:39;;;;;;;6.55;4.80;;;;;;;;;;5040227;28;20029;-59
2021/09/06 13:14:07;;;;;;;4.25;3.85;;;;;;;;;;5039438;28;20546;-59
2021/09/06 13:16:33;;;;;;;5.68;4.60;;;;;;;;;;5040167;28;20037;-59
2021/09/06 13:18:59;;;;;;;6.13;4.25;;;;;;;;;;5039598;28;20438;-59
2021/09/06 13:21:25;;;;;;;5.75;4.30;;;;;;;;;;5039668;28;20026;-59
2021/09/06 13:23:51;;;;;;;4.97;3.88;;;;;;;;;;5040483;28;20017;-59
2021/09/06 13:26:17;;;;;;;5.45;4.53;;;;;;;;;;5039578;28;20028;-59
2021/09/06 13:28:44;;;;;;;5.18;4.10;;;;;;;;;;5038027;28;20029;-59
2021/09/06 13:31:11;;;;;;;7.32;4.53;;;;;;;;;;5036119;28;20075;-59
2021/09/06 13:33:38;;;;;;;5.88;4.15;;;;;;;;;;5018646;28;20546;-59
2021/09/06 13:36:07;;;;;;;6.00;4.30;;;;;;;;;;5036666;28;20116;-59
2021/09/06 13:38:33;;;;;;;7.32;4.47;;;;;;;;;;5036699;28;20129;-59
2021/09/06 13:41:00;;;;;;;8.55;3.75;;;;;;;;;;5036080;28;20468;-59
2021/09/06 13:43:26;;;;;;;4.15;3.22;;;;;;;;;;5036560;28;20036;-59
2021/09/06 13:45:52;;;;;;;5.63;3.85;;;;;;;;;;5036234;28;20040;-59
2021/09/06 13:48:18;;;;;;;5.28;4.28;;;;;;;;;;5036457;28;20487;-59
2021/09/06 13:50:44;;;;;;;4.53;3.88;;;;;;;;;;5036597;28;20100;-59
2021/09/06 13:53:10;;;;;;;5.78;4.20;;;;;;;;;;5036506;28;20101;-59
2021/09/06 13:55:36;;;;;;;4.90;4.22;;;;;;;;;;5035911;28;20483;-59
2021/09/06 13:58:02;;;;;;;5.38;4.28;;;;;;;;;;5035967;28;20056;-59
2021/09/06 14:00:28;;;;;;;5.88;4.00;;;;;;;;;;5035997;28;20036;-59
2021/09/06 14:02:54;;;;;;;5.45;4.03;;;;;;;;;;5036285;28;20025;-59
2021/09/06 14:05:20;;;;;;;7.00;4.22;;;;;;;;;;5034873;28;20095;-59
2021/09/06 14:07:47;;;;;;;5.45;3.97;;;;;;;;;;5035769;28;20030;-59
2021/09/06 14:10:13;;;;;;;5.22;3.95;;;;;;;;;;5036083;28;20108;-59
2021/09/06 14:12:39;;;;;;;6.05;4.05;;;;;;;;;;5036051;28;20049;-59
2021/09/06 14:15:05;;;;;;;4.78;4.22;;;;;;;;;;5035849;28;20112;-59
2021/09/06 14:17:31;;;;;;;4.75;4.18;;;;;;;;;;5036133;28;20034;-59
2021/09/06 14:19:57;;;;;;;6.00;3.88;;;;;;;;;;5017865;28;20045;-59
2021/09/06 14:22:23;;;;;;;5.63;3.95;;;;;;;;;;5035862;28;20022;-59
2021/09/06 14:24:49;;;;;;;5.20;3.80;;;;;;;;;;5035149;28;20037;-59
2021/09/06 14:27:15;;;;;;;4.75;4.10;;;;;;;;;;5035923;28;20072;-59
2021/09/06 14:29:41;;;;;;;5.85;4.78;;;;;;;;;;5035294;28;20064;-59
2021/09/06 14:32:08;;;;;;;5.15;3.92;;;;;;;;;;5035857;28;20026;-59
2021/09/06 14:34:34;;;;;;;5.43;4.75;;;;;;;;;;5035527;28;20029;-59
2021/09/06 14:37:00;;;;;;;5.57;4.05;;;;;;;;;;5035626;28;20087;-59